Naaldwijk, Netherlands
Current Conditions -  °F | °C
As of 10:25 AM on Friday 19 Dec 2014 (Local Time) from EHRD Reporting Station
Drizzle Drizzle  
Wind Chill: 43°   Ceiling: 1500
Heat Index: 48°   Visibility: 4mi
Dew Point: 48°   Wind: 12mph
Humidity: 100%   Direction: 290°WNW
Pressure: 29.8"   Gusts: NA
Location:  51.99°N, 4.21°E
Report Text: EHRD 190925Z AUTO 29010KT 250V330 6000 DZ FEW007 BKN015CBBKN030 09/09 Q1009 BECMG 9999 SCT010 BKN030
Loading
Personal Weather Stations






























Interactive Weather Map New forecast layout! Learn more

10-Day Weather Forecast

Advertisements
Track Severe Weather on mobile